Time;durP1;ratioP1;P1;durP2;ratioP2;P2;SDS_P1;SDS_P2;PMS_P1;PMS_P2;Temp;Humidity;BMP_temperature;BMP_pressure;BME280_temperature;BME280_humidity;BME280_pressure;Samples;Min_cycle;Max_cycle;Signal;HPM_P1;HPM_P2
2021/01/16 00:02:14;;;;;;;2.60;0.65;;;6.50;85.20;;;;;;4835355;29;20041;-75
2021/01/16 00:04:41;;;;;;;0.77;0.47;;;6.50;85.30;;;;;;4834239;29;20045;-71
2021/01/16 00:07:09;;;;;;;0.90;0.50;;;6.50;85.40;;;;;;4831479;29;20065;-70
2021/01/16 00:09:36;;;;;;;1.13;0.50;;;6.50;85.20;;;;;;4839865;29;20129;-70
2021/01/16 00:12:04;;;;;;;1.75;0.60;;;6.50;85.40;;;;;;4831761;29;20509;-70
2021/01/16 00:14:31;;;;;;;1.83;0.70;;;6.40;85.50;;;;;;4828551;29;20215;-71
2021/01/16 00:16:58;;;;;;;1.40;0.70;;;6.40;85.40;;;;;;4828968;29;20092;-71
2021/01/16 00:19:26;;;;;;;2.28;0.90;;;6.40;85.60;;;;;;4828609;29;20038;-70
2021/01/16 00:21:58;;;;;;;1.52;0.60;;;6.40;85.70;;;;;;4833984;29;20049;-71
2021/01/16 00:24:25;;;;;;;0.95;0.50;;;6.40;85.70;;;;;;4834648;29;20563;-70
2021/01/16 00:26:52;;;;;;;2.83;0.90;;;6.40;86.20;;;;;;4818912;29;20435;-70
2021/01/16 00:29:19;;;;;;;4.28;0.70;;;6.60;86.00;;;;;;4846556;29;22340;-71
2021/01/16 00:31:46;;;;;;;1.80;0.75;;;6.60;85.90;;;;;;4835422;29;20672;-70
2021/01/16 00:34:13;;;;;;;1.38;0.60;;;6.60;86.20;;;;;;4833131;29;20454;-70
2021/01/16 00:36:42;;;;;;;2.28;0.90;;;6.70;86.00;;;;;;4832803;29;20057;-70
2021/01/16 00:39:09;;;;;;;2.33;0.73;;;6.60;86.00;;;;;;4833052;29;20049;-70
2021/01/16 00:41:36;;;;;;;3.30;0.70;;;6.50;86.20;;;;;;4850144;29;20509;-70
2021/01/16 00:44:05;;;;;;;0.95;0.52;;;6.40;85.80;;;;;;4833904;29;20377;-71
2021/01/16 00:46:33;;;;;;;1.80;0.52;;;6.40;86.10;;;;;;4839046;29;20597;-71
2021/01/16 00:49:01;;;;;;;1.90;0.80;;;6.40;86.10;;;;;;4836445;29;20038;-71
2021/01/16 00:51:28;;;;;;;1.02;0.63;;;6.40;85.90;;;;;;4832388;29;20042;-71
2021/01/16 00:53:57;;;;;;;1.42;0.65;;;6.40;85.70;;;;;;4833652;29;20518;-70
2021/01/16 00:56:24;;;;;;;1.10;0.57;;;6.40;85.70;;;;;;4834495;29;20050;-70
2021/01/16 00:59:02;;;;;;;1.05;0.60;;;6.40;85.40;;;;;;4833653;29;20513;-71
2021/01/16 01:01:40;;;;;;;1.52;0.50;;;6.40;85.60;;;;;;4831853;29;20090;-71
2021/01/16 01:04:09;;;;;;;1.67;0.60;;;6.30;85.90;;;;;;4833031;29;20487;-70
2021/01/16 01:06:36;;;;;;;1.25;0.88;;;6.40;86.10;;;;;;4850500;29;20540;-70
2021/01/16 01:09:05;;;;;;;2.30;0.90;;;6.40;85.90;;;;;;4847022;29;20125;-72
2021/01/16 01:11:32;;;;;;;1.77;0.88;;;6.30;86.10;;;;;;4843705;29;20052;-70
2021/01/16 01:13:59;;;;;;;2.42;0.95;;;6.30;86.20;;;;;;4830180;29;20057;-71
2021/01/16 01:16:26;;;;;;;1.67;0.90;;;6.30;86.50;;;;;;4842706;29;20038;-71
2021/01/16 01:18:54;;;;;;;3.05;0.90;;;6.30;86.50;;;;;;4832630;29;20460;-70
2021/01/16 01:21:21;;;;;;;1.08;0.70;;;6.30;86.40;;;;;;4834342;29;20557;-70
2021/01/16 01:23:48;;;;;;;1.20;0.70;;;6.30;86.60;;;;;;4834267;29;20584;-70
2021/01/16 01:26:17;;;;;;;3.70;0.80;;;6.20;86.90;;;;;;4834690;29;20041;-71
2021/01/16 01:28:44;;;;;;;1.80;0.90;;;6.30;87.00;;;;;;4849322;29;20715;-71
2021/01/16 01:31:11;;;;;;;1.48;0.60;;;6.30;87.00;;;;;;4829191;29;20398;-70
2021/01/16 01:33:39;;;;;;;2.33;0.77;;;6.30;87.20;;;;;;4835286;29;20046;-71
2021/01/16 01:36:07;;;;;;;1.23;0.80;;;6.30;87.30;;;;;;4831179;29;20588;-70
2021/01/16 01:38:35;;;;;;;2.10;1.27;;;6.30;87.20;;;;;;4845182;29;20128;-70
2021/01/16 01:41:02;;;;;;;1.85;0.90;;;6.40;87.10;;;;;;4830977;29;20046;-71
2021/01/16 01:43:30;;;;;;;2.83;1.00;;;6.30;87.30;;;;;;4837097;29;20053;-70
2021/01/16 01:45:57;;;;;;;2.33;0.88;;;6.30;87.60;;;;;;4830832;29;20446;-70
2021/01/16 01:48:25;;;;;;;1.65;1.00;;;6.30;88.00;;;;;;4837447;29;20069;-70
2021/01/16 01:50:53;;;;;;;3.10;0.90;;;6.30;87.90;;;;;;4832458;29;20128;-71
2021/01/16 01:53:21;;;;;;;1.38;0.80;;;6.30;87.90;;;;;;4832340;29;20195;-70
2021/01/16 01:55:55;;;;;;;2.47;0.90;;;6.40;87.80;;;;;;4831679;29;20440;-70
2021/01/16 01:58:24;;;;;;;2.50;1.20;;;6.30;87.90;;;;;;4830158;29;20520;-70
2021/01/16 02:00:53;;;;;;;1.75;1.00;;;6.40;88.30;;;;;;4833359;29;20516;-71
2021/01/16 02:03:23;;;;;;;1.98;0.90;;;6.40;87.90;;;;;;4834285;29;20330;-71
2021/01/16 02:05:53;;;;;;;2.42;1.20;;;6.30;88.30;;;;;;4829661;29;20835;-70
2021/01/16 02:08:21;;;;;;;2.13;1.30;;;6.30;88.40;;;;;;4836109;29;20506;-71
2021/01/16 02:10:48;;;;;;;3.33;1.50;;;6.40;88.40;;;;;;4831922;29;20042;-72
2021/01/16 02:13:16;;;;;;;2.42;1.55;;;6.40;88.60;;;;;;4831612;29;20044;-71
2021/01/16 02:15:49;;;;;;;2.72;1.42;;;6.40;88.70;;;;;;4844270;29;20042;-75
2021/01/16 02:18:25;;;;;;;1.90;1.20;;;6.30;88.40;;;;;;4836777;29;20545;-74
2021/01/16 02:20:54;;;;;;;1.98;1.00;;;6.10;88.10;;;;;;4849178;29;20049;-75
2021/01/16 02:23:33;;;;;;;2.25;1.10;;;6.00;88.40;;;;;;4830837;29;20416;-74
2021/01/16 02:26:17;;;;;;;2.70;1.33;;;6.00;88.70;;;;;;4832392;29;20094;-74
2021/01/16 02:28:49;;;;;;;2.85;1.15;;;6.10;89.10;;;;;;4831176;29;20106;-75
2021/01/16 02:31:17;;;;;;;2.70;1.10;;;6.20;88.80;;;;;;4847566;29;20146;-74
2021/01/16 02:33:47;;;;;;;2.20;1.08;;;6.20;88.80;;;;;;4828840;29;20125;-74
2021/01/16 02:36:24;;;;;;;2.85;1.23;;;6.20;88.50;;;;;;4826452;29;20184;-74
2021/01/16 02:39:01;;;;;;;4.55;1.23;;;6.10;88.30;;;;;;4831890;29;20057;-74
2021/01/16 02:41:35;;;;;;;4.15;1.35;;;6.10;88.60;;;;;;4840677;29;20049;-74
2021/01/16 02:44:15;;;;;;;1.83;1.00;;;6.00;88.70;;;;;;4844547;29;20053;-74
2021/01/16 02:46:47;;;;;;;4.05;1.10;;;5.90;88.40;;;;;;4843650;29;20556;-74
2021/01/16 02:49:36;;;;;;;1.73;0.70;;;5.90;87.80;;;;;;4830858;29;20045;-75
2021/01/16 02:52:06;;;;;;;1.95;0.70;;;5.90;87.30;;;;;;4835971;29;20476;-75
2021/01/16 02:54:35;;;;;;;1.33;0.70;;;5.90;86.90;;;;;;4837208;29;20137;-75
2021/01/16 02:57:05;;;;;;;2.13;0.75;;;5.90;86.90;;;;;;4842628;29;20060;-75
2021/01/16 02:59:37;;;;;;;2.83;1.00;;;6.00;86.80;;;;;;4831690;29;20137;-75
2021/01/16 03:02:05;;;;;;;3.90;0.85;;;6.00;86.50;;;;;;4831099;29;20045;-76
2021/01/16 03:04:33;;;;;;;1.55;0.80;;;5.90;85.90;;;;;;4834718;29;20519;-75
2021/01/16 03:07:02;;;;;;;1.58;0.82;;;5.90;85.70;;;;;;4831359;29;20057;-74
2021/01/16 03:09:31;;;;;;;2.80;0.80;;;5.90;85.40;;;;;;4830119;29;20073;-74
2021/01/16 03:11:59;;;;;;;3.58;1.20;;;5.90;84.80;;;;;;4828965;29;20164;-75
2021/01/16 03:14:28;;;;;;;0.95;0.60;;;5.90;85.10;;;;;;4832376;29;20441;-75
2021/01/16 03:17:05;;;;;;;3.42;0.88;;;6.00;84.70;;;;;;4832693;29;20042;-75
2021/01/16 03:19:34;;;;;;;1.58;0.90;;;6.00;84.40;;;;;;4826308;29;20092;-76
2021/01/16 03:22:15;;;;;;;1.33;0.80;;;6.00;84.40;;;;;;4831781;29;20069;-74
2021/01/16 03:24:43;;;;;;;1.63;0.80;;;6.00;84.60;;;;;;4831192;29;20577;-75
2021/01/16 03:27:10;;;;;;;1.83;1.05;;;6.00;84.50;;;;;;4827222;29;20466;-75
2021/01/16 03:29:38;;;;;;;2.03;0.77;;;6.00;85.00;;;;;;4843674;29;20491;-75
2021/01/16 03:32:07;;;;;;;1.73;0.65;;;6.00;84.70;;;;;;4844483;29;20045;-76
2021/01/16 03:34:35;;;;;;;2.30;0.80;;;6.00;85.00;;;;;;4829961;29;20057;-76
2021/01/16 03:37:03;;;;;;;2.65;1.20;;;5.90;84.50;;;;;;4814429;29;20052;-75
2021/01/16 03:39:30;;;;;;;2.22;0.75;;;5.90;84.70;;;;;;4832120;29;20046;-76
2021/01/16 03:41:57;;;;;;;1.50;0.90;;;5.90;84.80;;;;;;4829317;29;20087;-75
2021/01/16 03:44:25;;;;;;;1.83;0.98;;;5.90;84.70;;;;;;4831091;29;20098;-76
2021/01/16 03:46:52;;;;;;;1.38;0.88;;;5.90;84.80;;;;;;4829968;29;20050;-75
2021/01/16 03:49:20;;;;;;;1.60;0.75;;;5.90;84.80;;;;;;4830472;29;20042;-76
2021/01/16 03:51:47;;;;;;;2.15;0.70;;;5.90;84.50;;;;;;4842365;29;20046;-76
2021/01/16 03:54:14;;;;;;;2.35;0.68;;;5.90;84.80;;;;;;4828745;29;20131;-76
2021/01/16 03:56:41;;;;;;;1.00;0.60;;;5.90;85.00;;;;;;4844114;29;20126;-76
2021/01/16 03:59:08;;;;;;;4.43;1.17;;;5.90;84.80;;;;;;4834946;29;20412;-76
2021/01/16 04:01:35;;;;;;;2.78;1.13;;;5.80;85.00;;;;;;4833178;29;20049;-75
2021/01/16 04:04:04;;;;;;;1.25;0.73;;;5.80;84.70;;;;;;4835565;29;20113;-75
2021/01/16 04:06:32;;;;;;;2.35;1.10;;;5.80;85.10;;;;;;4833801;29;20416;-75
2021/01/16 04:08:59;;;;;;;2.40;1.10;;;5.90;85.20;;;;;;4846732;29;20061;-75
2021/01/16 04:11:26;;;;;;;2.92;0.93;;;5.80;85.30;;;;;;4833106;29;20053;-75
2021/01/16 04:13:53;;;;;;;1.70;0.93;;;5.80;85.40;;;;;;4832186;29;20140;-75
2021/01/16 04:16:21;;;;;;;3.38;1.05;;;5.80;85.10;;;;;;4833239;29;20417;-75
2021/01/16 04:18:48;;;;;;;3.22;0.90;;;5.80;85.40;;;;;;4830901;29;20416;-75
2021/01/16 04:21:15;;;;;;;1.58;0.77;;;5.80;85.40;;;;;;4846751;29;20042;-75
2021/01/16 04:23:43;;;;;;;2.20;0.80;;;5.80;85.40;;;;;;4833905;29;20517;-75
2021/01/16 04:26:10;;;;;;;2.88;0.98;;;5.80;85.60;;;;;;4847946;29;20050;-75
2021/01/16 04:28:38;;;;;;;1.70;1.00;;;5.70;85.50;;;;;;4832752;29;20747;-75
2021/01/16 04:31:05;;;;;;;2.00;0.90;;;5.70;85.60;;;;;;4831893;29;20046;-75
2021/01/16 04:33:33;;;;;;;1.88;1.00;;;5.70;85.60;;;;;;4836950;29;20042;-75
2021/01/16 04:36:01;;;;;;;2.30;0.90;;;5.70;85.60;;;;;;4832259;29;20050;-74
2021/01/16 04:38:28;;;;;;;2.88;1.13;;;5.70;85.60;;;;;;4833275;29;20042;-75
2021/01/16 04:40:56;;;;;;;5.13;1.00;;;5.70;85.40;;;;;;4847383;29;20525;-75
2021/01/16 04:43:24;;;;;;;1.63;0.95;;;5.70;85.60;;;;;;4847084;29;20488;-75
2021/01/16 04:45:56;;;;;;;1.73;0.73;;;5.60;85.70;;;;;;4833281;29;20387;-76
2021/01/16 04:48:25;;;;;;;1.95;1.10;;;5.60;85.70;;;;;;4834260;29;20138;-76
2021/01/16 04:50:59;;;;;;;2.17;0.93;;;5.60;85.70;;;;;;4833831;29;20579;-76
2021/01/16 04:53:36;;;;;;;2.50;1.00;;;5.60;85.90;;;;;;4841892;29;20164;-76
2021/01/16 04:56:05;;;;;;;3.47;0.70;;;5.50;86.00;;;;;;4843645;29;20167;-76
2021/01/16 04:58:34;;;;;;;3.00;0.80;;;5.50;85.60;;;;;;4833736;29;20122;-76
2021/01/16 05:01:04;;;;;;;2.13;0.98;;;5.50;85.60;;;;;;4833230;29;20042;-75
2021/01/16 05:03:36;;;;;;;2.40;0.90;;;5.60;85.20;;;;;;4831356;29;20057;-75
2021/01/16 05:06:08;;;;;;;2.55;1.30;;;5.50;84.70;;;;;;4832109;29;20509;-75
2021/01/16 05:08:37;;;;;;;1.30;0.68;;;5.60;84.90;;;;;;4831240;29;20344;-76
2021/01/16 05:11:11;;;;;;;3.75;1.10;;;5.60;84.70;;;;;;4846502;29;20596;-75
2021/01/16 05:13:43;;;;;;;1.77;1.00;;;5.60;84.80;;;;;;4847277;29;20042;-76
2021/01/16 05:16:12;;;;;;;2.45;0.93;;;5.60;84.70;;;;;;4845054;29;20165;-76
2021/01/16 05:18:42;;;;;;;3.50;1.08;;;5.60;84.70;;;;;;4830920;29;20030;-75
2021/01/16 05:21:10;;;;;;;1.88;0.98;;;5.60;84.80;;;;;;4833976;29;20521;-75
2021/01/16 05:23:43;;;;;;;1.77;1.08;;;5.60;84.80;;;;;;4831409;29;20045;-75
2021/01/16 05:26:11;;;;;;;1.63;0.90;;;5.60;84.80;;;;;;4835661;29;20042;-76
2021/01/16 05:28:39;;;;;;;3.88;1.27;;;5.60;84.80;;;;;;4830176;29;20049;-76
2021/01/16 05:31:07;;;;;;;1.90;0.90;;;5.70;85.00;;;;;;4833304;29;20229;-75
2021/01/16 05:33:37;;;;;;;1.83;1.10;;;5.60;85.10;;;;;;4834084;29;20042;-76
2021/01/16 05:36:06;;;;;;;1.90;1.20;;;5.60;85.10;;;;;;4831174;29;20049;-77
2021/01/16 05:38:35;;;;;;;1.95;1.08;;;5.50;85.00;;;;;;4845795;29;20065;-75
2021/01/16 05:41:05;;;;;;;1.70;0.90;;;5.50;85.00;;;;;;4841139;29;20090;-75
2021/01/16 05:43:34;;;;;;;1.88;0.73;;;5.50;85.10;;;;;;4828727;29;20522;-75
2021/01/16 05:46:03;;;;;;;1.98;0.77;;;5.50;85.00;;;;;;4831518;29;20692;-76
2021/01/16 05:48:32;;;;;;;1.95;1.00;;;5.50;85.00;;;;;;4816248;29;20042;-76
2021/01/16 05:51:01;;;;;;;2.00;0.75;;;5.50;85.00;;;;;;4829583;29;20057;-76
2021/01/16 05:53:28;;;;;;;2.83;0.88;;;5.50;84.50;;;;;;4846134;29;20050;-75
2021/01/16 05:55:57;;;;;;;1.88;0.73;;;5.50;84.70;;;;;;4835331;29;20112;-76
2021/01/16 05:58:30;;;;;;;1.88;0.68;;;5.50;84.50;;;;;;4830348;29;20045;-76
2021/01/16 06:01:04;;;;;;;1.50;0.95;;;5.50;84.50;;;;;;4830155;29;20128;-76
2021/01/16 06:03:34;;;;;;;1.38;0.60;;;5.50;84.50;;;;;;4833108;29;20138;-76
2021/01/16 06:06:08;;;;;;;1.95;0.90;;;5.50;84.60;;;;;;4843880;29;20075;-76
2021/01/16 06:08:46;;;;;;;2.47;0.75;;;5.50;84.60;;;;;;4830939;29;20205;-76
2021/01/16 06:11:14;;;;;;;2.78;0.88;;;5.50;84.80;;;;;;4845253;29;20529;-76
2021/01/16 06:13:43;;;;;;;2.72;0.88;;;5.60;84.60;;;;;;4830638;29;20519;-76
2021/01/16 06:16:16;;;;;;;2.60;0.85;;;5.60;84.50;;;;;;4831038;29;20660;-76
2021/01/16 06:18:47;;;;;;;3.67;0.98;;;5.60;84.40;;;;;;4832432;29;20060;-75
2021/01/16 06:21:22;;;;;;;2.15;0.98;;;5.60;84.50;;;;;;4843570;29;20048;-76
2021/01/16 06:23:54;;;;;;;3.88;0.80;;;5.60;85.00;;;;;;4834967;29;20053;-75
2021/01/16 06:26:22;;;;;;;2.55;0.80;;;5.50;84.70;;;;;;4829258;29;20049;-76
2021/01/16 06:28:55;;;;;;;1.50;0.98;;;5.50;84.90;;;;;;4829715;29;20050;-76
2021/01/16 06:31:25;;;;;;;1.90;0.95;;;5.50;84.80;;;;;;4829940;29;20129;-75
2021/01/16 06:33:57;;;;;;;3.05;1.00;;;5.40;84.90;;;;;;4832022;29;20052;-76
2021/01/16 06:36:28;;;;;;;1.73;0.82;;;5.50;85.00;;;;;;4848781;29;20538;-76
2021/01/16 06:38:57;;;;;;;1.02;0.70;;;5.50;84.90;;;;;;4833432;29;20497;-74
2021/01/16 06:41:29;;;;;;;1.35;1.00;;;5.40;84.80;;;;;;4829830;29;20034;-72
2021/01/16 06:43:56;;;;;;;2.78;1.23;;;5.40;84.60;;;;;;4831690;29;20364;-70
2021/01/16 06:46:43;;;;;;;1.88;0.93;;;5.40;84.60;;;;;;4831099;29;20105;-71
2021/01/16 06:49:19;;;;;;;2.22;0.90;;;5.30;84.90;;;;;;4844946;29;20386;-70
2021/01/16 06:51:49;;;;;;;2.40;1.00;;;5.30;84.90;;;;;;4832035;29;20041;-70
2021/01/16 06:54:22;;;;;;;1.88;1.00;;;5.30;84.60;;;;;;4831724;29;20142;-71
2021/01/16 06:57:02;;;;;;;2.92;0.90;;;5.30;84.60;;;;;;4830904;29;20052;-76
2021/01/16 06:59:31;;;;;;;2.13;1.10;;;5.20;84.20;;;;;;4841359;29;20046;-74
2021/01/16 07:01:59;;;;;;;2.33;0.98;;;5.20;84.10;;;;;;4836079;29;20057;-75
2021/01/16 07:04:30;;;;;;;2.85;1.15;;;5.30;84.20;;;;;;4830757;29;20034;-75
2021/01/16 07:07:03;;;;;;;2.80;1.30;;;5.30;84.30;;;;;;4837219;29;20085;-76
2021/01/16 07:09:33;;;;;;;3.30;1.25;;;5.30;84.50;;;;;;4826306;29;20049;-75
2021/01/16 07:12:02;;;;;;;3.03;1.35;;;5.40;84.50;;;;;;4832236;29;20046;-76
2021/01/16 07:14:30;;;;;;;3.28;1.15;;;5.40;84.20;;;;;;4831903;29;21314;-75
2021/01/16 07:16:59;;;;;;;1.85;1.10;;;5.40;84.20;;;;;;4834418;29;20489;-75
2021/01/16 07:19:30;;;;;;;1.48;1.00;;;5.50;84.20;;;;;;4830505;29;20050;-75
2021/01/16 07:21:58;;;;;;;5.57;1.38;;;5.50;84.20;;;;;;4836508;29;20048;-75
2021/01/16 07:24:25;;;;;;;1.70;1.23;;;5.50;84.10;;;;;;4829772;29;20455;-76
2021/01/16 07:26:54;;;;;;;2.10;1.10;;;5.60;83.90;;;;;;4837261;29;20052;-75
2021/01/16 07:29:22;;;;;;;2.00;1.30;;;5.60;83.80;;;;;;4832147;29;20053;-75
2021/01/16 07:31:52;;;;;;;2.10;1.15;;;5.60;83.70;;;;;;4834018;29;20085;-75
2021/01/16 07:34:23;;;;;;;2.25;1.10;;;5.60;83.80;;;;;;4829945;29;20768;-75
2021/01/16 07:36:51;;;;;;;4.03;1.42;;;5.60;83.70;;;;;;4830876;29;20046;-75
2021/01/16 07:39:20;;;;;;;2.25;1.00;;;5.60;83.80;;;;;;4830119;29;20041;-74
2021/01/16 07:41:52;;;;;;;1.70;1.00;;;5.70;83.90;;;;;;4831631;29;20072;-75
2021/01/16 07:44:31;;;;;;;2.40;1.10;;;5.70;83.90;;;;;;4826417;29;20065;-75
2021/01/16 07:47:03;;;;;;;1.95;0.88;;;5.80;83.60;;;;;;4839291;29;20544;-75
2021/01/16 07:49:39;;;;;;;2.38;1.20;;;5.80;83.30;;;;;;4822334;29;20069;-74
2021/01/16 07:52:07;;;;;;;1.52;1.02;;;5.80;82.80;;;;;;4832747;29;20050;-75
2021/01/16 07:54:43;;;;;;;4.10;1.10;;;5.90;82.80;;;;;;4830093;29;20454;-76
2021/01/16 07:57:14;;;;;;;1.95;0.95;;;5.90;82.50;;;;;;4836866;29;20050;-75
2021/01/16 07:59:51;;;;;;;2.72;1.05;;;6.00;82.80;;;;;;4831450;29;20129;-75
2021/01/16 08:02:27;;;;;;;2.35;1.27;;;6.10;82.60;;;;;;4828182;29;20050;-76
2021/01/16 08:05:04;;;;;;;2.15;1.17;;;6.10;82.40;;;;;;4828197;29;20145;-75
2021/01/16 08:07:54;;;;;;;2.40;1.30;;;6.10;82.50;;;;;;4843858;29;20052;-76
2021/01/16 08:10:25;;;;;;;1.40;0.90;;;6.10;82.40;;;;;;4846450;29;20190;-76
2021/01/16 08:12:57;;;;;;;2.45;0.80;;;6.20;82.20;;;;;;4826818;29;20090;-76
2021/01/16 08:15:29;;;;;;;3.22;1.40;;;6.30;82.30;;;;;;4836376;29;20053;-75
2021/01/16 08:17:59;;;;;;;1.58;1.00;;;6.30;81.70;;;;;;4849614;29;20134;-77
2021/01/16 08:20:39;;;;;;;2.33;0.98;;;6.40;81.60;;;;;;4834677;29;20247;-75
2021/01/16 08:23:10;;;;;;;2.60;1.20;;;6.40;81.50;;;;;;4849841;29;20068;-75
2021/01/16 08:25:38;;;;;;;1.73;0.90;;;6.50;81.80;;;;;;4851472;29;20042;-75
2021/01/16 08:28:05;;;;;;;1.55;1.10;;;6.50;82.00;;;;;;4832270;29;20064;-76
2021/01/16 08:30:35;;;;;;;2.13;1.10;;;6.60;82.10;;;;;;4831623;29;20047;-75
2021/01/16 08:33:05;;;;;;;2.83;1.15;;;6.70;82.10;;;;;;4832905;29;20442;-75
2021/01/16 08:35:42;;;;;;;2.75;1.77;;;6.70;81.60;;;;;;4832511;29;20102;-76
2021/01/16 08:38:25;;;;;;;1.70;1.13;;;6.70;81.50;;;;;;4829375;29;20356;-74
2021/01/16 08:41:04;;;;;;;2.95;1.00;;;6.80;81.60;;;;;;4836817;29;20062;-76
2021/01/16 08:43:34;;;;;;;3.42;0.95;;;6.80;81.50;;;;;;4832323;29;20045;-75
2021/01/16 08:46:11;;;;;;;2.80;1.00;;;6.80;81.00;;;;;;4831652;29;20046;-76
2021/01/16 08:48:40;;;;;;;3.30;1.33;;;6.80;81.00;;;;;;4814937;29;20505;-78
2021/01/16 08:51:29;;;;;;;2.50;1.00;;;6.80;81.10;;;;;;4839848;29;20046;-76
2021/01/16 08:54:14;;;;;;;4.22;1.20;;;6.90;81.00;;;;;;4849252;29;20084;-76
2021/01/16 08:56:44;;;;;;;3.65;1.00;;;6.90;80.70;;;;;;4830712;29;20046;-76
2021/01/16 08:59:27;;;;;;;3.28;1.55;;;6.90;80.50;;;;;;4837740;29;20053;-77
2021/01/16 09:02:06;;;;;;;2.85;1.35;;;6.90;80.50;;;;;;4831945;29;20060;-76
2021/01/16 09:04:35;;;;;;;2.03;1.00;;;6.90;79.90;;;;;;4833568;29;20058;-76
2021/01/16 09:07:15;;;;;;;2.08;1.17;;;7.00;80.60;;;;;;4827006;29;20573;-76
2021/01/16 09:09:53;;;;;;;2.92;1.15;;;7.10;80.60;;;;;;4846308;29;20144;-76
2021/01/16 09:12:29;;;;;;;7.25;1.60;;;7.20;80.60;;;;;;4831612;29;20060;-76
2021/01/16 09:15:19;;;;;;;3.00;1.17;;;7.30;80.40;;;;;;4830930;29;20053;-76
2021/01/16 09:18:04;;;;;;;4.80;1.50;;;7.30;80.00;;;;;;4837576;29;20053;-76
2021/01/16 09:20:33;;;;;;;3.47;1.08;;;7.30;79.30;;;;;;4833263;29;20157;-77
2021/01/16 09:23:24;;;;;;;2.28;1.35;;;7.40;79.50;;;;;;4824057;29;20441;-77
2021/01/16 09:25:55;;;;;;;2.33;1.35;;;7.40;78.80;;;;;;4832968;29;20661;-76
2021/01/16 09:28:39;;;;;;;4.03;1.10;;;7.40;79.30;;;;;;4835692;29;20136;-75
2021/01/16 09:31:22;;;;;;;3.35;1.52;;;7.50;79.30;;;;;;4838221;29;20060;-76
2021/01/16 09:33:59;;;;;;;3.08;1.20;;;7.60;79.20;;;;;;4830102;29;20062;-75
2021/01/16 09:36:38;;;;;;;1.90;1.10;;;7.70;79.40;;;;;;4814456;29;20055;-76
2021/01/16 09:39:25;;;;;;;2.42;1.30;;;7.70;78.10;;;;;;4835024;29;20582;-75
2021/01/16 09:41:55;;;;;;;2.38;1.02;;;7.70;78.50;;;;;;4830258;29;20050;-75
2021/01/16 09:44:49;;;;;;;2.65;1.38;;;7.80;78.60;;;;;;4821046;29;20049;-75
2021/01/16 09:47:46;;;;;;;3.72;1.42;;;7.90;78.50;;;;;;4836714;29;20125;-74
2021/01/16 09:50:15;;;;;;;1.52;1.05;;;8.00;78.10;;;;;;4831376;29;20083;-74
2021/01/16 09:52:46;;;;;;;1.98;1.10;;;8.10;77.60;;;;;;4833880;29;20491;-74
2021/01/16 09:55:19;;;;;;;2.58;1.10;;;8.10;77.40;;;;;;4832491;29;20053;-75
2021/01/16 09:57:48;;;;;;;2.15;1.00;;;8.10;77.80;;;;;;4832470;29;20045;-74
2021/01/16 10:00:25;;;;;;;2.78;1.20;;;8.20;76.60;;;;;;4830781;29;20137;-75
2021/01/16 10:02:59;;;;;;;2.30;1.15;;;8.20;77.50;;;;;;4851090;29;20077;-73
2021/01/16 10:05:29;;;;;;;1.83;0.90;;;8.40;77.30;;;;;;4841615;29;20062;-75
2021/01/16 10:07:58;;;;;;;1.88;1.40;;;8.40;76.20;;;;;;4831553;29;20053;-77
2021/01/16 10:10:26;;;;;;;1.42;0.90;;;8.40;75.70;;;;;;4847087;29;20459;-74
2021/01/16 10:12:59;;;;;;;2.22;0.90;;;8.50;76.20;;;;;;4845485;29;20050;-76
2021/01/16 10:15:32;;;;;;;1.80;1.00;;;8.50;76.80;;;;;;4840665;29;20045;-77
2021/01/16 10:18:05;;;;;;;1.88;0.90;;;8.60;76.30;;;;;;4832074;29;20056;-74
2021/01/16 10:20:34;;;;;;;2.38;1.10;;;8.50;75.50;;;;;;4816382;29;20252;-74
2021/01/16 10:23:07;;;;;;;2.95;1.70;;;8.50;75.70;;;;;;4830638;29;20475;-74
2021/01/16 10:25:39;;;;;;;3.03;2.25;;;8.70;76.00;;;;;;4819850;29;20057;-74
2021/01/16 10:28:10;;;;;;;1.90;1.13;;;8.80;74.70;;;;;;4844133;29;20209;-75
2021/01/16 10:30:56;;;;;;;1.55;0.88;;;8.80;74.70;;;;;;4832436;29;20557;-75
2021/01/16 10:33:24;;;;;;;2.10;1.02;;;8.70;74.50;;;;;;4828995;29;20075;-75
2021/01/16 10:36:05;;;;;;;1.55;0.98;;;8.80;75.10;;;;;;4833303;29;20148;-74
2021/01/16 10:38:41;;;;;;;2.17;0.95;;;8.90;74.70;;;;;;4833955;29;20134;-74
2021/01/16 10:41:10;;;;;;;2.47;1.52;;;9.00;74.50;;;;;;4836254;29;20046;-75
2021/01/16 10:43:38;;;;;;;1.88;1.08;;;9.00;73.80;;;;;;4835487;29;20121;-74
2021/01/16 10:46:12;;;;;;;2.67;1.30;;;9.00;73.60;;;;;;4835905;29;20419;-74
2021/01/16 10:48:41;;;;;;;1.85;1.38;;;9.20;73.70;;;;;;4834504;29;20056;-74
2021/01/16 10:51:11;;;;;;;2.20;1.15;;;9.20;73.10;;;;;;4833624;29;20048;-74
2021/01/16 10:53:40;;;;;;;2.13;0.98;;;9.20;73.00;;;;;;4817215;29;20050;-74
2021/01/16 10:56:13;;;;;;;3.03;1.02;;;9.20;74.00;;;;;;4850479;29;20122;-74
2021/01/16 10:58:44;;;;;;;2.08;1.38;;;9.40;74.20;;;;;;4836376;29;20038;-74
2021/01/16 11:01:12;;;;;;;1.65;0.90;;;9.50;73.30;;;;;;4845083;29;20390;-75
2021/01/16 11:03:40;;;;;;;2.22;1.30;;;9.40;72.90;;;;;;4858739;29;20053;-74
2021/01/16 11:06:11;;;;;;;1.73;0.90;;;9.40;73.10;;;;;;4842285;29;20525;-75
2021/01/16 11:08:39;;;;;;;1.77;1.00;;;9.40;72.10;;;;;;4817290;29;20068;-75
2021/01/16 11:11:23;;;;;;;2.45;1.30;;;9.50;72.30;;;;;;4837265;29;20497;-76
2021/01/16 11:13:52;;;;;;;2.05;0.93;;;9.50;72.30;;;;;;4817852;29;20058;-75
2021/01/16 11:16:22;;;;;;;2.22;1.40;;;9.50;72.60;;;;;;4807285;29;20497;-74
2021/01/16 11:18:52;;;;;;;3.30;1.35;;;9.60;72.30;;;;;;4828812;29;20143;-75
2021/01/16 11:21:51;;;;;;;1.77;1.30;;;9.70;72.70;;;;;;4829374;29;20421;-74
2021/01/16 11:24:47;;;;;;;3.85;1.70;;;9.80;72.00;;;;;;4832992;29;20072;-76
2021/01/16 11:27:17;;;;;;;2.13;1.35;;;9.90;72.10;;;;;;4834206;29;20049;-75
2021/01/16 11:29:46;;;;;;;3.58;1.63;;;9.90;72.30;;;;;;4834088;29;20512;-74
2021/01/16 11:32:15;;;;;;;3.47;1.00;;;10.10;73.00;;;;;;4832175;29;20041;-75
2021/01/16 11:35:03;;;;;;;2.65;1.45;;;10.20;72.10;;;;;;4830309;29;20048;-74
2021/01/16 11:37:46;;;;;;;2.47;1.13;;;10.20;71.80;;;;;;4831690;29;20510;-74
2021/01/16 11:40:22;;;;;;;1.55;0.80;;;10.30;71.50;;;;;;4844037;29;20129;-74
2021/01/16 11:43:00;;;;;;;1.98;1.27;;;10.40;71.50;;;;;;4839052;29;20046;-74
2021/01/16 11:45:28;;;;;;;2.60;1.60;;;10.50;70.70;;;;;;4827334;29;20041;-74
2021/01/16 11:47:57;;;;;;;192.23;139.02;;;10.60;71.10;;;;;;4823031;29;20058;-74
2021/01/16 11:50:26;;;;;;;34.22;21.90;;;10.60;70.80;;;;;;4830556;29;20048;-73
2021/01/16 11:52:54;;;;;;;14.88;10.27;;;10.70;71.10;;;;;;4832175;29;20102;-73
2021/01/16 11:55:21;;;;;;;10.77;7.18;;;10.70;70.50;;;;;;4832764;29;20382;-74
2021/01/16 11:57:49;;;;;;;6.20;3.60;;;10.80;70.30;;;;;;4830066;29;20061;-74
2021/01/16 12:00:18;;;;;;;4.78;3.10;;;10.90;69.40;;;;;;4842297;29;20527;-74
2021/01/16 12:02:48;;;;;;;3.30;2.03;;;11.10;69.80;;;;;;4833625;29;20046;-73
2021/01/16 12:05:18;;;;;;;3.35;2.00;;;11.10;69.50;;;;;;4828290;29;20526;-74
2021/01/16 12:07:49;;;;;;;1.63;1.30;;;11.10;68.90;;;;;;4831599;29;20046;-74
2021/01/16 12:10:17;;;;;;;2.08;1.40;;;11.10;69.10;;;;;;4828624;29;20548;-75
2021/01/16 12:12:53;;;;;;;3.03;1.40;;;11.30;69.10;;;;;;4832830;29;20046;-74
2021/01/16 12:15:25;;;;;;;2.63;1.58;;;11.50;68.60;;;;;;4829515;29;20045;-74
2021/01/16 12:17:56;;;;;;;2.10;1.60;;;11.50;68.70;;;;;;4830310;29;20038;-75
2021/01/16 12:20:25;;;;;;;3.15;2.15;;;11.50;68.00;;;;;;4838243;29;20173;-74
2021/01/16 12:22:56;;;;;;;3.83;2.17;;;11.60;68.90;;;;;;4834774;29;20046;-75
2021/01/16 12:25:31;;;;;;;2.63;1.70;;;11.70;68.50;;;;;;4833967;29;20077;-75
2021/01/16 12:28:00;;;;;;;2.78;1.92;;;11.80;67.80;;;;;;4844351;29;20516;-75
2021/01/16 12:30:34;;;;;;;4.05;2.10;;;11.90;67.60;;;;;;4833262;29;20548;-75
2021/01/16 12:33:03;;;;;;;3.67;2.00;;;11.90;66.60;;;;;;4821193;29;20054;-75
2021/01/16 12:35:31;;;;;;;3.67;2.00;;;11.90;67.20;;;;;;4849422;29;20049;-74
2021/01/16 12:37:58;;;;;;;2.70;1.48;;;11.90;66.80;;;;;;4834564;29;20527;-74
2021/01/16 12:40:27;;;;;;;3.28;1.75;;;11.90;67.30;;;;;;4834915;29;20126;-74
2021/01/16 12:42:56;;;;;;;2.65;1.90;;;12.00;67.60;;;;;;4825702;29;20054;-75
2021/01/16 12:45:24;;;;;;;2.10;1.55;;;12.00;67.40;;;;;;4838278;29;20078;-73
2021/01/16 12:47:53;;;;;;;4.07;2.10;;;12.00;67.70;;;;;;4832542;29;20053;-73
2021/01/16 12:50:24;;;;;;;3.45;1.67;;;12.10;67.30;;;;;;4834217;29;20501;-73
2021/01/16 12:52:54;;;;;;;2.30;1.50;;;12.10;67.30;;;;;;4832990;29;20065;-74
2021/01/16 12:55:23;;;;;;;2.60;1.60;;;12.20;67.50;;;;;;4846570;29;20360;-76
2021/01/16 12:57:52;;;;;;;3.88;1.55;;;12.30;66.90;;;;;;4831602;29;20054;-75
2021/01/16 13:00:23;;;;;;;2.33;1.67;;;12.30;67.00;;;;;;4832747;29;20046;-74
2021/01/16 13:02:55;;;;;;;1.70;1.40;;;12.20;67.30;;;;;;4830472;29;20509;-74
2021/01/16 13:05:27;;;;;;;3.42;1.88;;;12.40;67.00;;;;;;4828833;29;20601;-74
2021/01/16 13:07:57;;;;;;;2.72;1.60;;;12.20;66.10;;;;;;4829671;29;20056;-75
2021/01/16 13:10:26;;;;;;;3.28;1.75;;;12.20;66.70;;;;;;4834893;29;20079;-75
2021/01/16 13:12:54;;;;;;;2.00;1.33;;;12.40;67.00;;;;;;4839012;29;20046;-75
2021/01/16 13:15:35;;;;;;;2.38;1.65;;;12.50;66.50;;;;;;4825050;29;21620;-75
2021/01/16 13:18:11;;;;;;;3.60;2.13;;;12.50;66.00;;;;;;4847719;29;20472;-75